createdAt,value
2017-05-05T00:00:03.290Z,79.35
2017-05-05T00:05:02.977Z,78.78
2017-05-05T00:10:02.807Z,78.5
2017-05-05T00:15:03.447Z,77.26
2017-05-05T00:20:03.192Z,77.17
2017-05-05T00:25:03.007Z,76.59
2017-05-05T00:30:02.776Z,76.4
2017-05-05T00:35:03.347Z,75.45
2017-05-05T00:40:03.048Z,74.88
2017-05-05T00:45:02.827Z,74.31
2017-05-05T00:50:03.584Z,74.31
2017-05-05T00:55:03.217Z,73.93
2017-05-05T01:00:02.982Z,73.27
2017-05-05T01:05:03.664Z,72.99
2017-05-05T01:10:03.445Z,72.89
2017-05-05T01:15:03.078Z,72.79
2017-05-05T01:20:02.724Z,72.32
2017-05-05T01:25:03.438Z,72.41
2017-05-05T01:30:03.047Z,72.22
2017-05-05T01:35:03.647Z,72.41
2017-05-05T01:40:03.338Z,72.41
2017-05-05T01:45:03.009Z,72.32
2017-05-05T01:50:03.638Z,72.03
2017-05-05T01:55:03.379Z,71.75
2017-05-05T02:00:03.054Z,72.51
2017-05-05T02:05:03.681Z,72.32
2017-05-05T02:10:03.480Z,72.03
2017-05-05T02:15:03.268Z,72.03
2017-05-05T02:20:02.918Z,71.37
2017-05-05T02:25:03.605Z,71.37
2017-05-05T02:30:03.352Z,71.37
2017-05-05T02:35:03.077Z,71.27
2017-05-05T02:40:02.818Z,71.18
2017-05-05T02:45:03.675Z,71.18
2017-05-05T02:50:03.462Z,70.99
2017-05-05T02:55:03.171Z,70.89
2017-05-05T03:00:02.845Z,70.79
2017-05-05T03:05:03.583Z,70.79
2017-05-05T03:10:03.352Z,70.51
2017-05-05T03:15:03.117Z,70.7
2017-05-05T03:20:02.740Z,70.23
2017-05-05T03:25:03.442Z,69.66
2017-05-05T03:30:03.107Z,69.56
2017-05-05T03:35:02.834Z,69.46
2017-05-05T03:40:03.559Z,69.56
2017-05-05T03:45:03.265Z,69.27
2017-05-05T03:50:02.944Z,69.09
2017-05-05T03:55:03.680Z,68.8
2017-05-05T04:00:03.745Z,68.8
2017-05-05T04:05:03.557Z,68.71
2017-05-05T04:10:03.547Z,68.52
2017-05-05T04:15:03.293Z,68.23
2017-05-05T04:20:03.025Z,68.13
2017-05-05T04:25:03.766Z,67.94
2017-05-05T04:30:03.421Z,67.94
2017-05-05T04:35:03.108Z,67.66
2017-05-05T04:40:02.879Z,67.47
2017-05-05T04:45:03.598Z,67.28
2017-05-05T04:50:03.355Z,67.28
2017-05-05T04:55:02.962Z,67.28
2017-05-05T05:00:03.690Z,67.38
2017-05-05T05:05:03.452Z,67.38
2017-05-05T05:10:03.239Z,67.38
2017-05-05T05:15:02.913Z,67.38
2017-05-05T05:20:03.687Z,67.28
2017-05-05T05:25:03.432Z,67.57
2017-05-05T05:30:03.173Z,67.66
2017-05-05T05:35:02.878Z,67.85
2017-05-05T05:40:03.511Z,67.76
2017-05-05T05:45:03.251Z,67.94
2017-05-05T05:50:02.986Z,68.04
2017-05-05T05:55:03.696Z,68.33
2017-05-05T06:00:03.358Z,68.8
2017-05-05T06:05:03.129Z,69.27
2017-05-05T06:10:02.847Z,69.75
2017-05-05T06:15:03.619Z,70.51
2017-05-05T06:20:03.409Z,70.64
2017-05-05T06:25:03.150Z,71.22
2017-05-05T06:30:02.815Z,72.16
2017-05-05T06:35:03.439Z,72.45
2017-05-05T06:40:03.276Z,73.02
2017-05-05T06:45:02.970Z,74.63
2017-05-05T06:50:02.791Z,75.21
2017-05-05T06:55:03.605Z,75.02
2017-05-05T07:00:03.209Z,75.3
2017-05-05T07:05:02.909Z,75.68
2017-05-05T07:10:03.680Z,76.25
2017-05-05T07:15:03.318Z,77.39
2017-05-05T07:20:02.925Z,77.77
2017-05-05T07:25:03.615Z,78.25
2017-05-05T07:30:03.429Z,78.82
2017-05-05T07:35:03.076Z,79.01
2017-05-05T07:40:02.796Z,79.11
2017-05-05T07:45:03.376Z,80.15
2017-05-05T07:50:02.967Z,80.34
2017-05-05T07:55:03.604Z,81.29
2017-05-05T08:00:03.286Z,81.77
2017-05-05T08:05:03.035Z,82.38
2017-05-05T08:10:03.696Z,83.23
2017-05-05T08:15:03.356Z,83.71
2017-05-05T08:20:03.102Z,84.19
2017-05-05T08:25:02.854Z,84.56
2017-05-05T08:30:03.501Z,85.42
2017-05-05T08:35:03.246Z,85.99
2017-05-05T08:40:03.050Z,86.38
2017-05-05T08:45:02.831Z,87.42
2017-05-05T08:50:03.577Z,88.13
2017-05-05T08:55:03.189Z,90.42
2017-05-05T09:00:02.984Z,92.6
2017-05-05T09:05:02.714Z,92.7
2017-05-05T09:10:03.419Z,94.89
2017-05-05T09:15:03.041Z,97.22
2017-05-05T09:20:02.817Z,97.7
2017-05-05T09:25:03.530Z,99.46
2017-05-05T09:30:03.258Z,99.99
2017-05-05T09:35:02.877Z,99.55
2017-05-05T09:40:03.602Z,99.99
2017-05-05T09:45:03.349Z,99.99
2017-05-05T09:50:03.023Z,99.99
2017-05-05T09:55:02.760Z,99.99
2017-05-05T10:00:03.488Z,99.99
2017-05-05T10:05:03.181Z,99.99
2017-05-05T10:10:03.031Z,99.99
2017-05-05T10:15:02.753Z,99.99
2017-05-05T10:20:03.376Z,99.99
2017-05-05T10:25:03.131Z,99.99
2017-05-05T10:30:02.850Z,99.99
2017-05-05T10:35:03.470Z,99.99
2017-05-05T10:40:03.409Z,99.99
2017-05-05T10:45:03.266Z,99.99
2017-05-05T10:50:02.994Z,99.99
2017-05-05T10:55:03.664Z,99.99
2017-05-05T11:00:03.284Z,99.99
2017-05-05T11:05:02.914Z,99.99
2017-05-05T11:10:02.911Z,99.99
2017-05-05T11:15:03.018Z,99.99
2017-05-05T11:20:02.960Z,99.99
2017-05-05T11:25:02.980Z,99.99
2017-05-05T11:30:03.154Z,99.99
2017-05-05T11:35:02.992Z,99.99
2017-05-05T11:40:02.854Z,99.99
2017-05-05T11:45:03.037Z,99.99
2017-05-05T11:50:03.287Z,99.99
2017-05-05T11:55:02.934Z,99.99
2017-05-05T12:00:03.316Z,99.99
2017-05-05T12:05:03.044Z,99.99
2017-05-05T12:10:02.865Z,99.99
2017-05-05T12:15:03.413Z,99.99
2017-05-05T12:20:03.670Z,99.99
2017-05-05T12:25:02.816Z,99.99
2017-05-05T12:30:03.452Z,99.99
2017-05-05T12:35:02.914Z,99.99
2017-05-05T12:40:03.445Z,99.99
2017-05-05T12:45:03.432Z,99.99
2017-05-05T12:50:03.230Z,99.99
2017-05-05T12:55:02.931Z,99.99
2017-05-05T13:00:03.321Z,99.99
2017-05-05T13:05:03.353Z,99.99
2017-05-05T13:10:03.136Z,99.99
2017-05-05T13:15:03.169Z,99.99
2017-05-05T13:20:03.204Z,99.99
2017-05-05T13:25:02.760Z,99.99
2017-05-05T13:30:03.275Z,99.99
2017-05-05T13:35:03.362Z,99.99
2017-05-05T13:40:02.809Z,99.99
2017-05-05T13:45:03.483Z,99.99
2017-05-05T13:50:03.208Z,99.99
2017-05-05T13:55:02.772Z,99.99
2017-05-05T14:00:02.886Z,99.99
2017-05-05T14:05:03.294Z,99.99
2017-05-05T14:10:02.828Z,99.99
2017-05-05T14:15:02.930Z,99.99
2017-05-05T14:20:03.291Z,99.99
2017-05-05T14:25:03.218Z,99.99
2017-05-05T14:30:03.983Z,99.99
2017-05-05T14:35:04.496Z,99.99
2017-05-05T14:40:03.759Z,99.99
2017-05-05T14:45:02.973Z,99.99
2017-05-05T14:50:03.344Z,99.99
2017-05-05T14:55:02.788Z,99.99
2017-05-05T15:00:02.965Z,99.99
2017-05-05T15:05:03.121Z,99.99
2017-05-05T15:10:03.601Z,99.99
2017-05-05T15:15:03.323Z,99.99
2017-05-05T15:20:03.716Z,99.99
2017-05-05T15:25:03.653Z,99.99
2017-05-05T15:30:03.159Z,99.99
2017-05-05T15:35:03.396Z,99.99
2017-05-05T15:40:03.042Z,99.99
2017-05-05T15:45:03.529Z,99.99
2017-05-05T15:50:03.080Z,99.99
2017-05-05T15:55:03.324Z,99.99
2017-05-05T16:00:03.191Z,99.99
2017-05-05T16:05:02.894Z,99.99
2017-05-05T16:10:02.752Z,99.99
2017-05-05T16:15:03.378Z,99.99
2017-05-05T16:20:03.238Z,99.99
2017-05-05T16:25:02.963Z,99.99
2017-05-05T16:30:02.823Z,99.99
2017-05-05T16:35:03.433Z,99.99
2017-05-05T16:40:03.262Z,99.99
2017-05-05T16:45:02.955Z,99.99
2017-05-05T16:50:02.849Z,99.99
2017-05-05T16:55:03.501Z,99.99
2017-05-05T17:00:03.169Z,99.99
2017-05-05T17:05:02.799Z,99.99
2017-05-05T17:10:03.465Z,99.99
2017-05-05T17:15:03.097Z,99.99
2017-05-05T17:20:02.777Z,99.99
2017-05-05T17:25:03.426Z,99.99
2017-05-05T17:30:03.094Z,99.99
2017-05-05T17:35:02.813Z,99.99
2017-05-05T17:40:03.573Z,99.99
2017-05-05T17:45:03.202Z,99.99
2017-05-05T17:50:02.909Z,99.99
2017-05-05T17:55:03.548Z,99.99
2017-05-05T18:00:03.199Z,99.99
2017-05-05T18:05:02.990Z,99.99
2017-05-05T18:10:02.837Z,99.99
2017-05-05T18:15:03.627Z,99.99
2017-05-05T18:20:03.409Z,99.99
2017-05-05T18:25:03.273Z,99.99
2017-05-05T18:30:03.417Z,99.99
2017-05-05T18:35:03.113Z,99.99
2017-05-05T18:40:03.061Z,99.99
2017-05-05T18:45:03.729Z,99.99
2017-05-05T18:50:02.853Z,99.99
2017-05-05T18:55:02.811Z,99.99
2017-05-05T19:00:03.732Z,99.69
2017-05-05T19:05:03.701Z,99.13
2017-05-05T19:10:03.541Z,98.46
2017-05-05T19:15:03.312Z,98.08
2017-05-05T19:20:03.280Z,97.7
2017-05-05T19:25:02.926Z,97.22
2017-05-05T19:30:03.624Z,96.79
2017-05-05T19:35:03.483Z,96.41
2017-05-05T19:40:03.451Z,95.94
2017-05-05T19:45:03.287Z,95.27
2017-05-05T19:50:03.384Z,94.7
2017-05-05T19:55:03.301Z,94.22
2017-05-05T20:00:02.952Z,93.55
2017-05-05T20:05:03.604Z,92.79
2017-05-05T20:10:03.372Z,92.22
2017-05-05T20:15:03.184Z,91.84
2017-05-05T20:20:02.842Z,91.37
2017-05-05T20:25:03.468Z,90.89
2017-05-05T20:30:03.120Z,90.22
2017-05-05T20:35:02.900Z,89.75
2017-05-05T20:40:03.587Z,89.37
2017-05-05T20:45:03.281Z,88.89
2017-05-05T20:50:02.943Z,88.6
2017-05-05T20:55:02.792Z,88.42
2017-05-05T21:00:03.460Z,88.04
2017-05-05T21:05:03.162Z,87.65
2017-05-05T21:10:02.801Z,87.37
2017-05-05T21:15:03.460Z,87.08
2017-05-05T21:20:03.208Z,86.66
2017-05-05T21:25:02.832Z,86.47
2017-05-05T21:30:03.518Z,86.09
2017-05-05T21:35:03.265Z,85.71
2017-05-05T21:40:02.993Z,85.52
2017-05-05T21:45:03.574Z,85.24
2017-05-05T21:50:03.215Z,85.14
2017-05-05T21:55:03.078Z,84.47
2017-05-05T22:00:03.675Z,84.28
2017-05-05T22:05:03.263Z,83.71
2017-05-05T22:10:03.105Z,83.23
2017-05-05T22:15:02.832Z,82.71
2017-05-05T22:20:03.475Z,81.96
2017-05-05T22:25:03.122Z,81.48
2017-05-05T22:30:02.697Z,81.01
2017-05-05T22:35:03.490Z,80.72
2017-05-05T22:40:03.179Z,80.34
2017-05-05T22:45:02.905Z,79.63
2017-05-05T22:50:03.616Z,79.16
2017-05-05T22:55:03.408Z,78.78
2017-05-05T23:05:03.233Z,77.73
2017-05-05T23:10:03.112Z,77.26
2017-05-05T23:15:02.888Z,76.78
2017-05-05T23:20:03.544Z,76.21
2017-05-05T23:25:03.234Z,75.64
2017-05-05T23:30:02.892Z,75.32
2017-05-05T23:35:03.507Z,75.04
2017-05-05T23:40:03.179Z,74.56
2017-05-05T23:45:02.891Z,73.8
2017-05-05T23:50:03.577Z,73.52
2017-05-05T23:55:03.199Z,73.23
